createdAt,value
2023-03-01T00:00:01.918Z,1000.9698
2023-03-01T00:01:01.389Z,1000.942
2023-03-01T00:02:03.617Z,1001.1156
2023-03-01T00:03:03.026Z,1000.852
2023-03-01T00:04:01.795Z,1000.942
2023-03-01T00:05:02.284Z,1001.0045
2023-03-01T00:06:03.488Z,1000.942
2023-03-01T00:07:02.262Z,1000.8103
2023-03-01T00:08:01.713Z,1000.942
2023-03-01T00:09:02.219Z,1000.9489
2023-03-01T00:10:01.731Z,1000.9765
2023-03-01T00:11:02.263Z,1000.9209
2023-03-01T00:12:01.628Z,1000.7475
2023-03-01T00:13:02.169Z,1000.8167
2023-03-01T00:14:01.628Z,1000.8861
2023-03-01T00:15:02.196Z,1000.7752
2023-03-01T00:16:03.229Z,1000.8654
2023-03-01T00:17:03.721Z,1000.9139
2023-03-01T00:18:01.470Z,1000.7474
2023-03-01T00:19:01.967Z,1000.9622
2023-03-01T00:20:03.144Z,1000.8444
2023-03-01T00:21:01.959Z,1000.8721
2023-03-01T00:22:01.398Z,1000.8998
2023-03-01T00:23:01.883Z,1000.768
2023-03-01T00:24:01.522Z,1000.8444
2023-03-01T00:25:01.868Z,1000.7612
2023-03-01T00:26:03.003Z,1000.644
2023-03-01T00:27:01.792Z,1000.9828
2023-03-01T00:28:02.298Z,1000.8509
2023-03-01T00:29:01.710Z,1000.9754
2023-03-01T00:30:03.868Z,1000.9683
2023-03-01T00:31:01.753Z,1001.1483
2023-03-01T00:32:02.334Z,1000.9267
2023-03-01T00:33:01.670Z,1000.9476
2023-03-01T00:34:02.118Z,1000.9477
2023-03-01T00:35:01.638Z,1000.8437
2023-03-01T00:36:02.109Z,1000.7814
2023-03-01T00:37:01.550Z,1000.7814
2023-03-01T00:38:02.135Z,1000.8021
2023-03-01T00:39:01.569Z,1000.7535
2023-03-01T00:40:03.733Z,1000.9058
2023-03-01T00:41:01.469Z,1000.9681
2023-03-01T00:42:01.952Z,1000.9127
2023-03-01T00:43:01.471Z,1000.8159
2023-03-01T00:44:03.643Z,1000.7951
2023-03-01T00:45:01.418Z,1000.7951
2023-03-01T00:46:01.949Z,1000.6851
2023-03-01T00:47:01.396Z,1000.8713
2023-03-01T00:48:01.871Z,1000.8713
2023-03-01T00:49:03.071Z,1000.6988
2023-03-01T00:50:01.811Z,1000.7057
2023-03-01T00:51:02.340Z,1000.9821
2023-03-01T00:52:03.393Z,1000.8919
2023-03-01T00:53:02.190Z,1000.678
2023-03-01T00:54:01.702Z,1000.7465
2023-03-01T00:55:03.911Z,1000.7057
2023-03-01T00:56:01.631Z,1000.7325
2023-03-01T00:57:02.195Z,1000.6778
2023-03-01T00:58:03.307Z,1000.664
2023-03-01T00:59:03.798Z,1000.5394
2023-03-01T01:00:01.631Z,1000.6778
2023-03-01T01:01:02.141Z,1000.7532
2023-03-01T01:02:01.550Z,1000.8365
2023-03-01T01:03:03.012Z,1000.7671
2023-03-01T01:04:01.732Z,1000.864
2023-03-01T01:05:03.893Z,1000.5324
2023-03-01T01:06:01.710Z,1000.8086
2023-03-01T01:07:02.216Z,1000.5323
2023-03-01T01:08:01.630Z,1000.5946
2023-03-01T01:09:02.125Z,1000.6292
2023-03-01T01:10:03.310Z,1000.6292
2023-03-01T01:11:02.114Z,1000.5323
2023-03-01T01:12:01.554Z,1000.6085
2023-03-01T01:13:02.037Z,1000.6015
2023-03-01T01:14:01.473Z,1000.6153
2023-03-01T01:15:01.981Z,1000.5806
2023-03-01T01:16:01.516Z,1000.3937
2023-03-01T01:17:01.952Z,1000.4698
2023-03-01T01:18:03.154Z,1000.5528
2023-03-01T01:19:01.938Z,1000.5596
2023-03-01T01:20:01.398Z,1000.3729
2023-03-01T01:21:01.866Z,1000.4559
2023-03-01T01:22:01.395Z,1000.4836
2023-03-01T01:23:01.896Z,1000.4697
2023-03-01T01:24:01.323Z,1000.435
2023-03-01T01:25:01.825Z,1000.5249
2023-03-01T01:26:03.948Z,1000.4349
2023-03-01T01:27:03.464Z,1000.525
2023-03-01T01:28:02.271Z,1000.6081
2023-03-01T01:29:01.712Z,1000.442
2023-03-01T01:30:02.208Z,1000.3383
2023-03-01T01:31:01.786Z,1000.2552
2023-03-01T01:32:02.235Z,1000.4144
2023-03-01T01:33:01.639Z,1000.3036
2023-03-01T01:34:02.131Z,1000.2414
2023-03-01T01:35:03.348Z,1000.276
2023-03-01T01:36:02.117Z,1000.3313
2023-03-01T01:37:01.575Z,1000.2482
2023-03-01T01:38:03.708Z,1000.1305
2023-03-01T01:39:01.553Z,1000.1305
2023-03-01T01:40:02.054Z,1000.0959
2023-03-01T01:41:01.478Z,1000.1028
2023-03-01T01:42:03.641Z,1000.089
2023-03-01T01:43:01.476Z,1000.0959
2023-03-01T01:44:01.957Z,999.9921
2023-03-01T01:45:03.086Z,999.9921
2023-03-01T01:46:01.925Z,1000.2135
2023-03-01T01:47:03.075Z,999.9921
2023-03-01T01:48:01.890Z,999.9022
2023-03-01T01:49:01.317Z,1000.0958
2023-03-01T01:50:01.805Z,1000.0751
2023-03-01T01:51:02.287Z,999.916
2023-03-01T01:52:01.796Z,1000.0612
2023-03-01T01:53:02.275Z,999.9229
2023-03-01T01:54:01.747Z,1000.0335
2023-03-01T01:55:02.198Z,999.9436
2023-03-01T01:56:01.727Z,1000.0612
2023-03-01T01:57:02.210Z,999.9851
2023-03-01T01:58:01.655Z,1000.0888
2023-03-01T01:59:02.123Z,1000.1649
2023-03-01T02:00:01.646Z,1000.0543
2023-03-01T02:01:03.046Z,1000.234
2023-03-01T02:02:01.805Z,999.7707
2023-03-01T02:03:04.121Z,1000.1994
2023-03-01T02:04:01.706Z,1000.1994
2023-03-01T02:05:02.215Z,1000.0404
2023-03-01T02:06:01.766Z,999.8122
2023-03-01T02:07:02.197Z,999.8399
2023-03-01T02:08:01.640Z,1000.1303
2023-03-01T02:09:02.165Z,1000.1303
2023-03-01T02:10:01.689Z,1000.0957
2023-03-01T02:11:02.119Z,1000.0611
2023-03-01T02:12:01.667Z,1000.0957
2023-03-01T02:13:03.720Z,1000.0611
2023-03-01T02:14:03.180Z,1000.0957
2023-03-01T02:15:03.646Z,999.9367
2023-03-01T02:16:03.208Z,1000.1303
2023-03-01T02:17:01.882Z,1000.0611
2023-03-01T02:18:01.405Z,999.9989
2023-03-01T02:19:03.572Z,999.8675
2023-03-01T02:20:01.325Z,1000.0541
2023-03-01T02:21:01.828Z,1000.0334
2023-03-01T02:23:03.476Z,999.9642
2023-03-01T02:24:02.288Z,1000.0264
2023-03-01T02:25:01.754Z,1000.1163
2023-03-01T02:26:02.201Z,999.9366
2023-03-01T02:27:01.722Z,999.9711
2023-03-01T02:28:02.201Z,999.9366
2023-03-01T02:29:01.640Z,999.9919
2023-03-01T02:30:02.218Z,999.8537
2023-03-01T02:31:01.666Z,1000.0817
2023-03-01T02:32:02.154Z,999.7776
2023-03-01T02:33:03.259Z,999.7431
2023-03-01T02:34:02.029Z,999.9918
2023-03-01T02:35:01.582Z,1000.0125
2023-03-01T02:36:02.040Z,999.9987
2023-03-01T02:37:01.508Z,999.8744
2023-03-01T02:38:01.954Z,1000.0471
2023-03-01T02:39:01.489Z,999.8674
2023-03-01T02:40:01.979Z,999.8536
2023-03-01T02:41:01.402Z,999.9158
2023-03-01T02:42:03.613Z,1000.1163
2023-03-01T02:43:01.432Z,999.902
2023-03-01T02:44:01.883Z,999.8744
2023-03-01T02:45:01.318Z,999.9711
2023-03-01T02:46:01.798Z,1000.1576
2023-03-01T02:47:04.033Z,999.8882
2023-03-01T02:48:03.495Z,999.8882
2023-03-01T02:49:02.283Z,1000.0817
2023-03-01T02:50:01.712Z,1000.0817
2023-03-01T02:51:03.885Z,999.8536
2023-03-01T02:52:01.716Z,999.9503
2023-03-01T02:53:02.216Z,1000.0401
2023-03-01T02:54:01.638Z,999.9296
2023-03-01T02:55:02.113Z,999.9986
2023-03-01T02:56:03.318Z,999.902
2023-03-01T02:57:02.112Z,1000.1092
2023-03-01T02:58:01.582Z,1000.0677
2023-03-01T02:59:02.035Z,1000.0332
2023-03-01T03:00:03.158Z,999.971
2023-03-01T03:01:02.053Z,999.9088
2023-03-01T03:02:01.485Z,1000.047
2023-03-01T03:03:01.957Z,999.9641
2023-03-01T03:04:01.545Z,999.8398
2023-03-01T03:05:01.984Z,1000.2403
2023-03-01T03:06:01.428Z,1000.0607
2023-03-01T03:07:01.873Z,999.9848
2023-03-01T03:08:03.036Z,999.7707
2023-03-01T03:09:01.797Z,999.8743
2023-03-01T03:10:01.308Z,999.6878
2023-03-01T03:11:03.502Z,999.8674
2023-03-01T03:12:02.269Z,999.674
2023-03-01T03:13:01.788Z,999.6633
2023-03-01T03:14:02.287Z,999.7638
2023-03-01T03:15:03.398Z,999.7224
2023-03-01T03:16:02.234Z,999.6564
2023-03-01T03:17:03.404Z,999.615
2023-03-01T03:18:02.204Z,999.7086
2023-03-01T03:19:03.304Z,999.7431
2023-03-01T03:20:03.802Z,999.6948
2023-03-01T03:21:01.553Z,999.7569
2023-03-01T03:22:02.033Z,999.8466
2023-03-01T03:23:01.596Z,999.8466
2023-03-01T03:24:02.028Z,1000.0331
2023-03-01T03:25:01.477Z,999.6288
2023-03-01T03:26:03.635Z,999.6081
2023-03-01T03:27:03.237Z,999.5805
2023-03-01T03:28:01.969Z,999.615
2023-03-01T03:29:01.398Z,999.6633
2023-03-01T03:30:03.595Z,999.7224
2023-03-01T03:31:03.065Z,999.6426
2023-03-01T03:32:03.551Z,999.546
2023-03-01T03:33:02.276Z,999.6288
2023-03-01T03:34:01.820Z,999.8466
2023-03-01T03:35:02.272Z,999.8466
2023-03-01T03:36:01.777Z,999.8121
2023-03-01T03:37:03.868Z,999.681
2023-03-01T03:38:01.704Z,999.8052
2023-03-01T03:39:02.206Z,999.9157
2023-03-01T03:40:01.628Z,999.7017
2023-03-01T03:41:02.140Z,999.6741
2023-03-01T03:42:01.633Z,999.7569
2023-03-01T03:43:02.099Z,999.6081
2023-03-01T03:44:01.541Z,999.7431
2023-03-01T03:45:02.045Z,999.6565
2023-03-01T03:46:01.618Z,999.7017
2023-03-01T03:47:02.051Z,999.6565
2023-03-01T03:48:01.552Z,999.6289
2023-03-01T03:49:02.021Z,999.6289
2023-03-01T03:50:01.491Z,999.553
2023-03-01T03:51:03.624Z,999.6703
2023-03-01T03:52:01.484Z,999.6082
2023-03-01T03:53:01.968Z,999.5047
2023-03-01T03:54:01.389Z,999.5944
2023-03-01T03:55:01.894Z,999.5806
2023-03-01T03:56:01.319Z,999.7017
2023-03-01T03:57:01.815Z,999.6565
2023-03-01T03:58:03.034Z,999.4633
2023-03-01T03:59:02.739Z,999.6948
2023-03-01T04:00:03.168Z,999.5461
2023-03-01T04:01:01.949Z,999.6289
2023-03-01T04:02:01.395Z,999.5875
2023-03-01T04:03:01.880Z,999.5599
2023-03-01T04:04:01.398Z,999.7983
2023-03-01T04:05:01.879Z,999.5254
2023-03-01T04:06:03.027Z,999.622
2023-03-01T04:07:01.803Z,999.5668
2023-03-01T04:08:02.307Z,999.4495
2023-03-01T04:09:01.792Z,999.5806
2023-03-01T04:10:02.281Z,999.6703
2023-03-01T04:11:03.418Z,999.6879
2023-03-01T04:12:03.886Z,999.4357
2023-03-01T04:13:01.642Z,999.3736
2023-03-01T04:14:02.185Z,999.4495
2023-03-01T04:15:01.645Z,999.4219
2023-03-01T04:16:02.121Z,999.3806
2023-03-01T04:17:03.343Z,999.56
2023-03-01T04:18:03.822Z,999.3806
2023-03-01T04:19:01.556Z,999.3393
2023-03-01T04:20:03.721Z,999.5118
2023-03-01T04:21:01.479Z,999.4566
2023-03-01T04:22:01.962Z,999.4497
2023-03-01T04:23:03.168Z,999.429
2023-03-01T04:24:01.961Z,999.3808
2023-03-01T04:25:03.072Z,999.6497
2023-03-01T04:26:01.874Z,999.4911
2023-03-01T04:27:01.403Z,999.5807
2023-03-01T04:28:03.583Z,999.4843
2023-03-01T04:29:01.325Z,999.5394
2023-03-01T04:30:01.801Z,999.4291
2023-03-01T04:31:02.281Z,999.5394
2023-03-01T04:32:02.009Z,999.6949
2023-03-01T04:33:02.287Z,999.4843
2023-03-01T04:34:01.749Z,999.6773
2023-03-01T04:35:02.267Z,999.4291
2023-03-01T04:36:03.460Z,999.5601
2023-03-01T04:37:02.190Z,999.5945
2023-03-01T04:38:01.643Z,999.2637
2023-03-01T04:39:03.812Z,999.3601
2023-03-01T04:40:03.231Z,999.4842
2023-03-01T04:41:03.726Z,999.4497
2023-03-01T04:42:03.236Z,999.429
2023-03-01T04:43:02.034Z,999.4014
2023-03-01T04:44:01.470Z,999.4083
2023-03-01T04:45:03.636Z,999.3531
2023-03-01T04:46:01.646Z,999.5048
2023-03-01T04:47:01.975Z,999.6289
2023-03-01T04:48:03.072Z,999.5048
2023-03-01T04:49:03.538Z,999.3463
2023-03-01T04:50:01.403Z,999.2774
2023-03-01T04:51:03.550Z,999.436
2023-03-01T04:52:02.292Z,999.4428
2023-03-01T04:53:01.792Z,999.4359
2023-03-01T04:54:02.276Z,999.3808
2023-03-01T04:55:03.387Z,999.4153
2023-03-01T04:56:03.870Z,999.3188
2023-03-01T04:57:01.754Z,999.2224
2023-03-01T04:58:02.192Z,999.2914
2023-03-01T04:59:02.607Z,999.3328
2023-03-01T05:00:01.317Z,999.4017
2023-03-01T05:01:01.795Z,999.4155
2023-03-01T05:02:02.292Z,999.3191
2023-03-01T05:03:03.520Z,999.3467
2023-03-01T05:04:02.418Z,999.388
2023-03-01T05:05:01.821Z,999.3261
2023-03-01T05:06:02.276Z,999.2917
2023-03-01T05:07:01.828Z,999.3811
2023-03-01T05:08:03.936Z,999.4225
2023-03-01T05:09:03.406Z,999.2226
2023-03-01T05:10:02.209Z,999.3604
2023-03-01T05:11:01.720Z,999.4568
2023-03-01T05:12:02.202Z,999.3535
2023-03-01T05:13:01.629Z,999.4982
2023-03-01T05:14:02.114Z,999.4018
2023-03-01T05:15:01.675Z,999.4707
2023-03-01T05:16:03.952Z,999.333
2023-03-01T05:17:01.551Z,999.4225
2023-03-01T05:18:02.129Z,999.3054
2023-03-01T05:19:01.556Z,999.4156
2023-03-01T05:20:02.037Z,999.2504
2023-03-01T05:21:03.245Z,999.4845
2023-03-01T05:22:02.041Z,999.4639
2023-03-01T05:23:01.468Z,999.2986
2023-03-01T05:24:01.960Z,999.2848
2023-03-01T05:25:03.147Z,999.3262
2023-03-01T05:26:03.651Z,999.3193
2023-03-01T05:27:01.465Z,999.278
2023-03-01T05:28:03.649Z,999.5121
2023-03-01T05:29:01.473Z,999.4157
2023-03-01T05:30:01.955Z,999.4295
2023-03-01T05:31:01.495Z,999.4708
2023-03-01T05:32:02.029Z,999.5397
2023-03-01T05:33:01.395Z,999.4639
2023-03-01T05:34:01.882Z,999.4708
2023-03-01T05:35:03.063Z,999.4846
2023-03-01T05:36:01.974Z,999.4846
2023-03-01T05:37:01.349Z,999.6498
2023-03-01T05:38:01.892Z,999.4984
2023-03-01T05:39:01.325Z,999.6949
2023-03-01T05:40:01.788Z,999.7225
2023-03-01T05:41:01.315Z,999.75
2023-03-01T05:42:01.809Z,999.4571
2023-03-01T05:43:02.266Z,999.5397
2023-03-01T05:44:03.479Z,999.3538
2023-03-01T05:45:02.299Z,999.3675
2023-03-01T05:46:01.760Z,999.4501
2023-03-01T05:47:02.199Z,999.4639
2023-03-01T05:48:03.399Z,999.4363
2023-03-01T05:49:02.185Z,999.457
2023-03-01T05:50:01.733Z,999.3469
2023-03-01T05:51:02.191Z,999.5397
2023-03-01T05:52:01.632Z,999.2643
2023-03-01T05:53:03.791Z,999.3193
2023-03-01T05:54:01.627Z,999.278
2023-03-01T05:55:02.130Z,999.3193
2023-03-01T05:56:01.640Z,999.3744
2023-03-01T05:57:03.822Z,999.4433
2023-03-01T05:58:01.604Z,999.278
2023-03-01T05:59:01.479Z,999.3675
2023-03-01T06:00:03.556Z,999.2779
2023-03-01T06:01:01.405Z,999.4088
2023-03-01T06:02:03.594Z,999.2298
2023-03-01T06:03:01.399Z,999.2504
2023-03-01T06:04:01.870Z,999.5878
2023-03-01T06:05:03.218Z,999.4088
2023-03-01T06:06:01.796Z,999.2711
2023-03-01T06:07:02.279Z,999.4157
2023-03-01T06:08:01.823Z,999.3468
2023-03-01T06:09:03.960Z,999.3123
2023-03-01T06:10:01.718Z,999.4638
2023-03-01T06:11:02.266Z,999.2985
2023-03-01T06:12:01.718Z,999.3261
2023-03-01T06:13:03.834Z,999.5121
2023-03-01T06:14:03.321Z,999.6154
2023-03-01T06:15:02.179Z,999.5396
2023-03-01T06:16:01.641Z,999.3881
2023-03-01T06:17:03.725Z,999.4707
2023-03-01T06:18:01.567Z,999.3536
2023-03-01T06:19:02.060Z,999.3742
2023-03-01T06:20:01.493Z,999.3053
2023-03-01T06:21:01.960Z,999.4569
2023-03-01T06:22:03.193Z,999.4569
2023-03-01T06:23:01.963Z,999.3123
2023-03-01T06:24:01.407Z,999.4225
2023-03-01T06:25:01.902Z,999.4569
2023-03-01T06:26:01.343Z,999.4775
2023-03-01T06:27:01.827Z,999.2501
2023-03-01T06:29:01.808Z,999.4086
2023-03-01T06:30:02.304Z,999.4982
2023-03-01T06:31:03.449Z,999.3329
2023-03-01T06:32:03.959Z,999.3949
2023-03-01T06:33:01.869Z,999.5051
2023-03-01T06:34:02.196Z,999.3742
2023-03-01T06:35:01.757Z,999.3535
2023-03-01T06:36:02.331Z,999.5395
2023-03-01T06:37:01.655Z,999.3467
2023-03-01T06:38:03.831Z,999.4638
2023-03-01T06:39:01.650Z,999.3466
2023-03-01T06:40:02.135Z,999.5119
2023-03-01T06:41:01.576Z,999.3051
2023-03-01T06:42:02.055Z,999.2844
2023-03-01T06:43:01.571Z,999.7086
2023-03-01T06:44:02.064Z,999.4017
2023-03-01T06:45:01.493Z,999.3189
2023-03-01T06:46:01.968Z,999.3395
2023-03-01T06:47:03.161Z,999.2085
2023-03-01T06:48:01.973Z,999.2153
2023-03-01T06:49:01.424Z,999.2222
2023-03-01T06:50:01.927Z,999.5669
2023-03-01T06:51:01.412Z,999.1671
2023-03-01T06:52:01.894Z,999.3119
2023-03-01T06:53:01.634Z,999.3188
2023-03-01T06:54:01.881Z,999.4015
2023-03-01T06:55:03.960Z,999.3877
2023-03-01T06:56:01.720Z,999.4221
2023-03-01T06:57:03.961Z,999.3187
2023-03-01T06:58:01.732Z,999.4497
2023-03-01T06:59:03.984Z,999.5876
2023-03-01T07:00:01.735Z,999.367
2023-03-01T07:01:02.202Z,999.4497
2023-03-01T07:02:01.690Z,999.491
2023-03-01T07:03:02.285Z,999.3738
2023-03-01T07:04:01.697Z,999.5048
2023-03-01T07:05:02.136Z,999.6289
2023-03-01T07:06:01.635Z,999.6014
2023-03-01T07:07:02.140Z,999.5324
2023-03-01T07:08:01.631Z,999.3393
2023-03-01T07:09:03.790Z,999.5669
2023-03-01T07:10:01.560Z,999.4634
2023-03-01T07:11:02.025Z,999.5669
2023-03-01T07:12:01.481Z,999.5462
2023-03-01T07:13:02.036Z,999.5048
2023-03-01T07:14:01.501Z,999.4221
2023-03-01T07:15:03.632Z,999.5117
2023-03-01T07:16:03.112Z,999.422
2023-03-01T07:17:03.656Z,999.3047
2023-03-01T07:18:02.997Z,999.2081
2023-03-01T07:19:01.884Z,999.3736
2023-03-01T07:20:01.321Z,999.4771
2023-03-01T07:21:01.803Z,999.3736
2023-03-01T07:23:01.918Z,999.5944
2023-03-01T07:24:02.277Z,999.4288
2023-03-01T07:25:01.959Z,999.4081
2023-03-01T07:26:03.956Z,999.6565
2023-03-01T07:27:03.402Z,999.4287
2023-03-01T07:28:03.864Z,999.539
2023-03-01T07:29:01.712Z,999.3388
2023-03-01T07:30:02.264Z,999.3042
2023-03-01T07:31:03.396Z,999.4216
2023-03-01T07:32:02.457Z,999.3318
2023-03-01T07:33:01.690Z,999.4283
2023-03-01T07:34:02.116Z,999.0897
2023-03-01T07:35:03.319Z,999.2831
2023-03-01T07:36:02.199Z,999.3176
2023-03-01T07:37:01.575Z,999.2691
2023-03-01T07:38:02.033Z,999.4281
2023-03-01T07:39:01.549Z,999.4419
2023-03-01T07:40:03.731Z,999.4211
2023-03-01T07:41:01.543Z,999.2689
2023-03-01T07:42:02.044Z,999.6562
2023-03-01T07:43:01.484Z,999.3103
2023-03-01T07:44:02.036Z,999.5385
2023-03-01T07:45:01.476Z,999.3378
2023-03-01T07:46:02.070Z,999.2685
2023-03-01T07:47:03.146Z,999.4415
2023-03-01T07:48:01.965Z,999.3307
2023-03-01T07:49:01.411Z,999.4414
2023-03-01T07:50:01.898Z,999.5591
2023-03-01T07:51:01.402Z,999.2474
2023-03-01T07:52:01.875Z,999.3166
2023-03-01T07:53:03.099Z,999.5521
2023-03-01T07:54:01.803Z,999.462
2023-03-01T07:55:03.015Z,999.2957
2023-03-01T07:56:01.783Z,999.3857
2023-03-01T07:57:02.289Z,999.3232
2023-03-01T07:58:01.806Z,999.2331
2023-03-01T07:59:03.236Z,999.441
2023-03-01T08:00:01.967Z,999.4063
2023-03-01T08:01:01.603Z,999.3439
2023-03-01T08:02:01.987Z,999.2537
2023-03-01T08:03:01.543Z,999.2119
2023-03-01T08:04:01.941Z,999.3576
2023-03-01T08:05:03.095Z,999.4269
2023-03-01T08:06:01.863Z,999.5241
2023-03-01T08:07:01.329Z,999.2187
2023-03-01T08:08:01.813Z,999.1977
2023-03-01T08:09:04.006Z,999.2531
2023-03-01T08:10:03.418Z,999.1975
2023-03-01T08:11:02.285Z,999.253
2023-03-01T08:12:03.396Z,999.2252
2023-03-01T08:13:02.208Z,999.2389
2023-03-01T08:14:03.401Z,999.2666
2023-03-01T08:15:02.189Z,998.9401
2023-03-01T08:16:01.715Z,999.204
2023-03-01T08:17:02.318Z,999.0026
2023-03-01T08:18:03.313Z,999.0512
2023-03-01T08:19:02.129Z,999.1483
2023-03-01T08:20:03.234Z,999.2524
2023-03-01T08:21:02.073Z,999.1203
2023-03-01T08:22:01.561Z,999.148
2023-03-01T08:23:02.038Z,999.0992
2023-03-01T08:24:01.468Z,999.0574
2023-03-01T08:25:01.956Z,999.273
2023-03-01T08:26:01.493Z,999.1198
2023-03-01T08:27:01.969Z,999.0363
2023-03-01T08:28:03.072Z,998.9734
2023-03-01T08:29:03.555Z,998.9595
2023-03-01T08:30:01.397Z,998.9107
2023-03-01T08:31:01.906Z,998.9664
2023-03-01T08:32:01.468Z,998.9873
2023-03-01T08:33:01.829Z,998.9314
2023-03-01T08:34:03.953Z,998.7433
2023-03-01T08:35:01.808Z,998.9172
2023-03-01T08:36:02.361Z,998.8404
2023-03-01T08:37:03.425Z,998.8473
2023-03-01T08:38:02.196Z,998.9308
2023-03-01T08:39:01.709Z,998.8401
2023-03-01T08:40:02.192Z,998.7284
2023-03-01T08:41:03.388Z,998.763
2023-03-01T08:42:02.107Z,998.8257
2023-03-01T08:43:01.577Z,998.784
2023-03-01T08:44:02.112Z,998.9024
2023-03-01T08:45:03.259Z,998.735
2023-03-01T08:46:02.085Z,998.8045
2023-03-01T08:47:03.137Z,998.8253
2023-03-01T08:48:01.964Z,998.6925
2023-03-01T08:49:01.477Z,998.7133
2023-03-01T08:50:03.765Z,998.7271
2023-03-01T08:51:03.153Z,998.7972
2023-03-01T08:52:01.954Z,998.9366
2023-03-01T08:53:01.392Z,998.7133
2023-03-01T08:54:01.877Z,998.6365
2023-03-01T08:55:03.001Z,998.7202
2023-03-01T08:56:01.783Z,998.7271
2023-03-01T08:57:02.284Z,998.4897
2023-03-01T08:58:01.813Z,998.6919
2023-03-01T08:59:04.961Z,998.587
2023-03-01T09:00:01.626Z,998.5868
2023-03-01T09:01:02.121Z,998.5168
2023-03-01T09:02:01.666Z,998.5655
2023-03-01T09:03:03.786Z,998.6141
2023-03-01T09:04:01.576Z,998.5232
2023-03-01T09:05:02.100Z,998.5091
2023-03-01T09:06:03.231Z,998.5367
2023-03-01T09:07:02.034Z,998.4036
2023-03-01T09:08:01.565Z,998.4947
2023-03-01T09:09:03.641Z,998.6067
2023-03-01T09:10:01.468Z,998.5021
2023-03-01T09:11:03.543Z,998.572
2023-03-01T09:12:01.384Z,998.4669
2023-03-01T09:13:02.649Z,998.4036
2023-03-01T09:14:01.399Z,998.4805
2023-03-01T09:15:01.874Z,998.5223
2023-03-01T09:16:01.315Z,998.333
2023-03-01T09:17:01.833Z,998.3255
2023-03-01T09:19:01.810Z,998.231
2023-03-01T09:20:02.277Z,998.5214
2023-03-01T09:21:01.786Z,998.4935
2023-03-01T09:22:03.870Z,998.563
2023-03-01T09:23:01.726Z,998.4437
2023-03-01T09:24:02.210Z,998.3804
2023-03-01T09:25:01.707Z,998.5273
2023-03-01T09:26:03.871Z,998.4714
2023-03-01T09:27:01.627Z,998.2363
2023-03-01T09:28:03.785Z,998.4502
2023-03-01T09:29:01.667Z,998.3171
2023-03-01T09:30:02.108Z,998.3453
2023-03-01T09:31:01.714Z,998.4362
2023-03-01T09:32:02.170Z,998.2499
2023-03-01T09:33:03.251Z,998.3377
2023-03-01T09:34:02.050Z,998.3657
2023-03-01T09:35:01.463Z,998.4286
2023-03-01T09:36:01.969Z,998.3513
2023-03-01T09:37:01.473Z,998.295
2023-03-01T09:38:01.949Z,998.3022
2023-03-01T09:39:03.088Z,998.4493
2023-03-01T09:40:01.943Z,998.2949
2023-03-01T09:41:01.404Z,998.2597
2023-03-01T09:42:01.891Z,998.3718
2023-03-01T09:43:01.318Z,998.2201
2023-03-01T09:44:01.855Z,998.4906
2023-03-01T09:46:03.540Z,998.2871
2023-03-01T09:47:02.263Z,998.2621
2023-03-01T09:48:01.748Z,998.3643
2023-03-01T09:49:03.872Z,998.3501
2023-03-01T09:50:03.402Z,998.2201
2023-03-01T09:51:02.229Z,998.178
2023-03-01T09:52:01.647Z,998.3082
2023-03-01T09:53:02.143Z,998.315
2023-03-01T09:54:01.631Z,998.0842
2023-03-01T09:55:02.155Z,998.2615
2023-03-01T09:56:01.659Z,998.3283
2023-03-01T09:57:03.852Z,998.2329
2023-03-01T09:58:01.595Z,998.2119
2023-03-01T09:59:02.064Z,998.3074
2023-03-01T10:00:01.607Z,998.3353
2023-03-01T10:01:02.033Z,998.2792
2023-03-01T10:02:01.472Z,998.2609
2023-03-01T10:03:02.041Z,998.1186
2023-03-01T10:04:01.458Z,998.2327
2023-03-01T10:05:01.903Z,998.335
2023-03-01T10:06:01.407Z,998.1971
2023-03-01T10:07:01.874Z,998.2851
2023-03-01T10:08:01.348Z,998.2178
2023-03-01T10:09:03.466Z,998.4254
2023-03-01T10:10:02.284Z,998.2527
2023-03-01T10:11:01.738Z,998.3831
2023-03-01T10:12:02.197Z,998.3269
2023-03-01T10:13:01.714Z,998.334
2023-03-01T10:14:02.192Z,998.1034
2023-03-01T10:15:01.629Z,998.4042
2023-03-01T10:16:02.185Z,998.2315
2023-03-01T10:17:01.639Z,998.1893
2023-03-01T10:18:03.712Z,998.3337
2023-03-01T10:19:01.566Z,998.3337
2023-03-01T10:20:02.070Z,998.2845
2023-03-01T10:21:01.514Z,998.3407
2023-03-01T10:22:03.632Z,998.2844
2023-03-01T10:23:01.477Z,998.4108
2023-03-01T10:24:01.961Z,998.2701
2023-03-01T10:25:01.410Z,998.3122
2023-03-01T10:26:03.550Z,998.2627
2023-03-01T10:27:03.108Z,998.3257
2023-03-01T10:28:03.586Z,998.2304
2023-03-01T10:29:01.332Z,998.2906
2023-03-01T10:30:01.824Z,998.1883
2023-03-01T10:31:02.302Z,998.3751
2023-03-01T10:32:03.523Z,998.2555
2023-03-01T10:33:03.109Z,998.3749
2023-03-01T10:34:01.716Z,998.3328
2023-03-01T10:35:02.226Z,998.0525
2023-03-01T10:36:01.674Z,998.0102
2023-03-01T10:37:02.190Z,998.0732
2023-03-01T10:38:01.634Z,998.1082
2023-03-01T10:39:02.112Z,997.9817
2023-03-01T10:40:03.327Z,997.9957
2023-03-01T10:41:02.125Z,997.9184
2023-03-01T10:42:03.233Z,998.0098
2023-03-01T10:43:02.032Z,997.9606
2023-03-01T10:44:01.474Z,997.851
2023-03-01T10:45:03.662Z,998.0237
2023-03-01T10:46:03.171Z,997.925
2023-03-01T10:47:03.648Z,997.9039
2023-03-01T10:48:01.396Z,997.8969
2023-03-01T10:49:01.893Z,997.8506
2023-03-01T10:50:03.081Z,998.0095
2023-03-01T10:51:03.582Z,997.8574
2023-03-01T10:52:01.326Z,997.7519
2023-03-01T10:53:01.798Z,997.7024
2023-03-01T10:54:02.299Z,997.8219
2023-03-01T10:55:01.840Z,997.7377
2023-03-01T10:56:02.302Z,997.8966
2023-03-01T10:57:03.470Z,997.8824
2023-03-01T10:58:02.201Z,997.9807
2023-03-01T10:59:01.738Z,997.8497
2023-03-01T11:00:03.079Z,997.7508
2023-03-01T11:01:01.956Z,997.7508
2023-03-01T11:02:03.510Z,997.7577
2023-03-01T11:03:01.913Z,997.7646
2023-03-01T11:04:02.992Z,998.0079
2023-03-01T11:05:01.913Z,997.7573
2023-03-01T11:06:02.271Z,997.7363
2023-03-01T11:07:01.813Z,997.7151
2023-03-01T11:08:03.913Z,997.9163
2023-03-01T11:09:03.418Z,997.5671
2023-03-01T11:10:02.194Z,997.8765
2023-03-01T11:11:01.722Z,997.7709
2023-03-01T11:12:02.196Z,997.827
2023-03-01T11:13:03.388Z,997.8131
2023-03-01T11:14:02.159Z,997.862
2023-03-01T11:15:01.637Z,997.693
2023-03-01T11:16:02.165Z,997.8336
2023-03-01T11:17:01.683Z,997.7985
2023-03-01T11:18:13.502Z,997.8052
2023-03-01T11:19:01.573Z,997.8752
2023-03-01T11:20:03.731Z,997.7201
2023-03-01T11:21:01.487Z,997.9778
2023-03-01T11:22:02.003Z,997.9778
2023-03-01T11:23:01.499Z,997.9426
2023-03-01T11:24:03.684Z,997.6213
2023-03-01T11:25:09.958Z,997.5507
2023-03-01T11:26:01.881Z,997.8041
2023-03-01T11:27:01.441Z,997.6064
2023-03-01T11:28:01.886Z,997.7613
2023-03-01T11:29:03.022Z,997.7963
2023-03-01T11:30:01.900Z,997.592
2023-03-01T11:31:08.152Z,997.4792
2023-03-01T11:32:01.878Z,997.5994
2023-03-01T11:33:02.625Z,997.4163
2023-03-01T11:34:01.783Z,997.5996
2023-03-01T11:35:02.285Z,997.5714
2023-03-01T11:36:01.998Z,997.5996
2023-03-01T11:37:02.225Z,997.6842
2023-03-01T11:38:01.729Z,997.6275
2023-03-01T11:39:03.872Z,997.6764
2023-03-01T11:40:01.727Z,997.4999
2023-03-01T11:41:02.233Z,997.669
2023-03-01T11:42:12.957Z,997.5841
2023-03-01T11:43:02.231Z,997.5839
2023-03-01T11:44:03.237Z,997.5625
2023-03-01T11:45:02.069Z,997.6259
2023-03-01T11:46:01.553Z,997.8091
2023-03-01T11:47:02.216Z,997.5408